CYVR/YVR METAR and TAF weather

Enter ICAO airport designator
Station Type Date Time Source
CYVR METAR 2019/04/25 02:00 UTC NOAA

CYVR 250200Z VRB02KT 30SM BKN220 11/03 A3032 RMK CI7 SLP269


Station Type Date Time Source
CYVR Decoded METAR 2019/04/25 02:00 UTC NOAA

Vancouver International Air-Port, B. C., Canada (CYVR) 49-11N 123-10W 2M
Apr 24, 2019 - 10:00 PM EDT / 2019.04.25 0200 UTC
Wind: Variable at 2 MPH (2 KT):0
Visibility: 30 mile(s):0
Sky conditions: mostly cloudy
Temperature: 51 F (11 C)
Dew Point: 37 F (3 C)
Relative Humidity: 57%
Pressure (altimeter): 30.32 in. Hg (1026 hPa)
ob: CYVR 250200Z VRB02KT 30SM BKN220 11/03 A3032 RMK CI7 SLP269
cycle: 2

Station Type Date Time Source
CYVR TAF 2019/04/24 21:46 UTC NOAA

TAF CYVR 242042Z 2421/2524 29012G22KT P6SM FEW050
BECMG 2422/2424 29008KT
FM250800 32006KT P6SM FEW250
BECMG 2515/2517 29012KT
RMK NXT FCST BY 250000Z

Example: see airport list